Time;durP1;ratioP1;P1;durP2;ratioP2;P2;SDS_P1;SDS_P2;PMS_P1;PMS_P2;Temp;Humidity;BMP_temperature;BMP_pressure;BME280_temperature;BME280_humidity;BME280_pressure;Samples;Min_cycle;Max_cycle;Signal;HPM_P1;HPM_P2
2022/03/02 00:01:15;;;;;;;7.57;6.78;;;8.20;99.90;;;;;;5001018;28;20204;-61
2022/03/02 00:03:42;;;;;;;7.30;6.60;;;8.20;99.90;;;;;;5001378;28;20066;-61
2022/03/02 00:06:09;;;;;;;7.15;6.45;;;8.20;99.90;;;;;;5000106;28;20573;-61
2022/03/02 00:08:36;;;;;;;7.95;7.15;;;8.20;99.90;;;;;;5001611;28;20096;-62
2022/03/02 00:11:03;;;;;;;8.40;7.47;;;8.20;99.90;;;;;;5000881;28;20140;-62
2022/03/02 00:13:30;;;;;;;9.73;8.35;;;8.20;99.90;;;;;;5001201;28;20081;-61
2022/03/02 00:15:57;;;;;;;8.75;7.95;;;8.20;99.90;;;;;;4999701;28;20092;-62
2022/03/02 00:18:24;;;;;;;8.10;7.30;;;8.20;99.90;;;;;;5000220;28;20096;-62
2022/03/02 00:20:50;;;;;;;8.95;7.82;;;8.30;99.90;;;;;;5000963;28;20124;-61
2022/03/02 00:23:17;;;;;;;9.68;8.27;;;8.30;99.90;;;;;;5001191;28;20367;-62
2022/03/02 00:25:44;;;;;;;9.70;8.73;;;8.30;99.90;;;;;;4998618;28;20501;-61
2022/03/02 00:28:10;;;;;;;8.02;7.22;;;8.30;99.90;;;;;;5001123;28;20627;-62
2022/03/02 00:30:37;;;;;;;9.20;8.18;;;8.30;99.90;;;;;;4999049;28;20054;-61
2022/03/02 00:33:04;;;;;;;9.77;8.10;;;8.30;99.90;;;;;;5001196;28;20205;-61
2022/03/02 00:35:31;;;;;;;9.57;8.35;;;8.30;99.90;;;;;;5000207;28;20076;-61
2022/03/02 00:37:57;;;;;;;10.02;9.02;;;8.30;99.90;;;;;;5000792;28;20146;-62
2022/03/02 00:40:24;;;;;;;11.35;9.35;;;8.30;99.90;;;;;;5000571;28;20141;-61
2022/03/02 00:42:51;;;;;;;10.85;9.02;;;8.20;99.90;;;;;;5001202;28;20061;-61
2022/03/02 00:45:18;;;;;;;11.68;10.05;;;8.20;99.90;;;;;;4998800;28;20133;-61
2022/03/02 00:47:45;;;;;;;12.60;11.32;;;8.20;99.90;;;;;;5001075;28;20100;-60
2022/03/02 00:50:13;;;;;;;12.52;11.10;;;8.20;99.90;;;;;;5000303;28;20080;-62
2022/03/02 00:52:39;;;;;;;12.50;11.20;;;8.20;99.90;;;;;;5000927;28;20092;-61
2022/03/02 00:55:06;;;;;;;14.48;12.43;;;8.20;99.90;;;;;;5000203;28;20073;-61
2022/03/02 00:57:33;;;;;;;13.48;12.07;;;8.10;99.90;;;;;;5001239;28;20189;-61
2022/03/02 01:00:00;;;;;;;14.00;12.10;;;8.10;99.90;;;;;;4999185;28;20056;-61
2022/03/02 01:02:26;;;;;;;13.98;12.32;;;8.10;99.90;;;;;;5001023;28;20204;-61
2022/03/02 01:04:53;;;;;;;14.27;12.77;;;8.10;99.90;;;;;;4998870;28;20054;-61
2022/03/02 01:07:20;;;;;;;14.10;12.38;;;8.10;99.90;;;;;;5004266;28;20221;-63
2022/03/02 01:09:47;;;;;;;15.52;13.30;;;8.10;99.90;;;;;;5006368;28;20129;-62
2022/03/02 01:12:13;;;;;;;15.82;14.00;;;8.10;99.90;;;;;;5008371;28;20168;-63
2022/03/02 01:14:40;;;;;;;15.32;13.15;;;8.00;99.90;;;;;;5005149;28;20092;-63
2022/03/02 01:17:07;;;;;;;15.38;13.73;;;8.00;99.90;;;;;;5007642;28;20104;-61
2022/03/02 01:19:35;;;;;;;15.73;13.65;;;8.00;99.90;;;;;;5007150;28;20085;-63
2022/03/02 01:22:02;;;;;;;15.23;13.60;;;7.90;99.90;;;;;;5006925;28;20516;-62
2022/03/02 01:24:29;;;;;;;16.25;14.55;;;7.90;99.90;;;;;;5006755;28;20081;-62
2022/03/02 01:26:55;;;;;;;15.68;12.80;;;7.90;99.90;;;;;;5008138;28;20137;-63
2022/03/02 01:29:23;;;;;;;18.73;15.45;;;7.90;99.90;;;;;;5005043;28;20146;-62
2022/03/02 01:31:49;;;;;;;17.70;14.85;;;7.90;99.90;;;;;;5008190;28;20089;-62
2022/03/02 01:34:17;;;;;;;18.50;14.98;;;7.80;99.90;;;;;;5006687;28;20124;-60
2022/03/02 01:36:43;;;;;;;16.65;13.85;;;7.80;99.90;;;;;;5007291;28;20085;-62
2022/03/02 01:39:10;;;;;;;16.40;13.82;;;7.80;99.90;;;;;;5007088;28;20056;-62
2022/03/02 01:41:37;;;;;;;15.98;13.25;;;7.80;99.90;;;;;;5006745;28;20656;-61
2022/03/02 01:44:04;;;;;;;15.43;13.75;;;7.80;99.90;;;;;;5005848;28;20089;-62
2022/03/02 01:46:31;;;;;;;14.48;12.57;;;7.80;99.90;;;;;;5006703;28;20061;-62
2022/03/02 01:48:58;;;;;;;15.52;12.38;;;7.80;99.90;;;;;;5006573;28;20081;-62
2022/03/02 01:51:24;;;;;;;16.48;13.52;;;7.80;99.90;;;;;;5007112;28;20473;-62
2022/03/02 01:53:51;;;;;;;15.85;13.82;;;7.70;99.90;;;;;;5006756;28;20252;-63
2022/03/02 01:56:18;;;;;;;17.13;14.13;;;7.70;99.90;;;;;;5006646;28;20085;-62
2022/03/02 01:58:45;;;;;;;17.17;13.63;;;7.70;99.90;;;;;;5004520;28;20357;-62
2022/03/02 02:01:12;;;;;;;16.75;14.25;;;7.70;99.90;;;;;;5006156;28;20049;-62
2022/03/02 02:03:39;;;;;;;16.45;14.52;;;7.70;99.90;;;;;;5006644;28;20132;-61
2022/03/02 02:06:06;;;;;;;16.17;13.55;;;7.70;99.90;;;;;;5006589;28;20137;-62
2022/03/02 02:08:33;;;;;;;16.38;13.48;;;7.70;99.90;;;;;;5006553;28;20120;-62
2022/03/02 02:11:00;;;;;;;17.85;14.07;;;7.70;99.90;;;;;;5006328;28;20442;-62
2022/03/02 02:13:27;;;;;;;16.92;13.30;;;7.70;99.90;;;;;;5006631;28;20149;-62
2022/03/02 02:15:54;;;;;;;16.60;13.52;;;7.70;99.90;;;;;;5004397;28;20141;-62
2022/03/02 02:18:20;;;;;;;15.30;13.25;;;7.70;99.90;;;;;;5005596;28;20136;-62
2022/03/02 02:20:47;;;;;;;15.05;12.27;;;7.70;99.90;;;;;;5006470;28;20411;-62
2022/03/02 02:23:14;;;;;;;15.38;12.57;;;7.70;99.90;;;;;;5007029;28;20050;-62
2022/03/02 02:25:41;;;;;;;15.70;12.45;;;7.70;99.90;;;;;;5006149;28;20149;-62
2022/03/02 02:28:10;;;;;;;14.07;11.80;;;7.70;99.90;;;;;;5006914;28;20133;-62
2022/03/02 02:30:36;;;;;;;13.55;11.93;;;7.60;99.90;;;;;;5004022;28;20132;-62
2022/03/02 02:33:03;;;;;;;14.45;12.40;;;7.70;99.90;;;;;;5006861;28;20243;-63
2022/03/02 02:35:30;;;;;;;16.20;12.20;;;7.70;99.90;;;;;;5007752;28;20588;-62
2022/03/02 02:37:58;;;;;;;15.57;13.18;;;7.60;99.90;;;;;;5008402;28;20149;-62
2022/03/02 02:40:26;;;;;;;16.55;12.45;;;7.60;99.90;;;;;;5007685;28;20146;-63
2022/03/02 02:42:52;;;;;;;14.35;12.57;;;7.60;99.90;;;;;;5008877;28;20236;-62
2022/03/02 02:45:21;;;;;;;15.27;12.43;;;7.60;99.90;;;;;;5005105;28;20137;-63
2022/03/02 02:47:55;;;;;;;13.50;11.70;;;7.60;99.90;;;;;;5007457;28;20131;-62
2022/03/02 02:50:24;;;;;;;13.95;11.90;;;7.60;99.90;;;;;;5006196;28;20050;-62
2022/03/02 02:52:51;;;;;;;14.65;12.68;;;7.60;99.90;;;;;;5006811;28;20045;-63
2022/03/02 02:55:18;;;;;;;13.52;11.95;;;7.60;99.90;;;;;;5005935;28;20420;-63
2022/03/02 02:57:45;;;;;;;15.55;12.95;;;7.60;99.90;;;;;;5006223;28;20081;-62
2022/03/02 03:00:13;;;;;;;15.95;12.57;;;7.60;99.90;;;;;;5002836;28;20132;-61
2022/03/02 03:02:40;;;;;;;13.82;12.43;;;7.60;99.90;;;;;;5005022;28;20084;-61
2022/03/02 03:05:11;;;;;;;13.68;11.30;;;7.60;99.90;;;;;;5005325;28;20400;-62
2022/03/02 03:07:38;;;;;;;14.18;11.60;;;7.60;99.90;;;;;;5006607;28;20129;-61
2022/03/02 03:10:06;;;;;;;14.30;12.13;;;7.60;99.90;;;;;;5004886;28;21057;-62
2022/03/02 03:12:33;;;;;;;14.38;12.32;;;7.60;99.90;;;;;;5004939;28;20160;-62
2022/03/02 03:15:00;;;;;;;15.02;12.15;;;7.60;99.90;;;;;;5004337;28;20131;-62
2022/03/02 03:17:27;;;;;;;14.43;12.18;;;7.60;99.90;;;;;;5003984;28;20101;-62
2022/03/02 03:19:54;;;;;;;15.35;12.70;;;7.60;99.90;;;;;;5005797;28;20108;-62
2022/03/02 03:22:21;;;;;;;13.45;11.13;;;7.60;99.90;;;;;;5006412;28;20391;-61
2022/03/02 03:24:47;;;;;;;15.27;12.50;;;7.60;99.90;;;;;;5004652;28;20137;-62
2022/03/02 03:27:14;;;;;;;14.43;12.65;;;7.50;99.90;;;;;;5006450;28;20137;-61
2022/03/02 03:29:41;;;;;;;14.02;12.23;;;7.50;99.90;;;;;;5003654;28;20049;-62
2022/03/02 03:32:08;;;;;;;14.30;12.43;;;7.50;99.90;;;;;;5005981;28;20442;-61
2022/03/02 03:34:35;;;;;;;15.32;12.43;;;7.50;99.90;;;;;;5005469;28;20092;-64
2022/03/02 03:37:02;;;;;;;12.48;10.65;;;7.50;99.90;;;;;;5004281;28;20136;-62
2022/03/02 03:39:28;;;;;;;15.13;13.10;;;7.50;99.90;;;;;;5005134;28;20784;-62
2022/03/02 03:41:55;;;;;;;13.43;11.77;;;7.50;99.90;;;;;;5005982;28;20452;-62
2022/03/02 03:44:23;;;;;;;13.32;11.93;;;7.50;99.90;;;;;;5002251;28;20157;-62
2022/03/02 03:46:50;;;;;;;14.48;12.68;;;7.50;99.90;;;;;;5005479;28;20670;-61
2022/03/02 03:49:17;;;;;;;15.07;12.13;;;7.50;99.90;;;;;;5004622;28;20617;-62
2022/03/02 03:51:43;;;;;;;14.27;12.30;;;7.50;99.90;;;;;;5006256;28;20112;-62
2022/03/02 03:54:10;;;;;;;15.60;12.65;;;7.50;99.90;;;;;;5004875;28;20097;-63
2022/03/02 03:56:37;;;;;;;14.30;12.70;;;7.40;99.90;;;;;;5005545;28;20121;-62
2022/03/02 03:59:04;;;;;;;13.20;11.38;;;7.50;99.90;;;;;;5004041;28;20132;-62
2022/03/02 04:01:31;;;;;;;13.45;11.50;;;7.50;99.90;;;;;;5003428;28;20104;-62
2022/03/02 04:03:58;;;;;;;13.25;11.77;;;7.50;99.90;;;;;;5005006;28;20402;-62
2022/03/02 04:06:24;;;;;;;15.23;12.60;;;7.50;99.90;;;;;;5004859;28;20081;-62
2022/03/02 04:08:51;;;;;;;14.82;11.85;;;7.50;99.90;;;;;;5005083;28;20462;-62
2022/03/02 04:11:18;;;;;;;13.93;12.40;;;7.50;99.90;;;;;;5004472;28;20136;-62
2022/03/02 04:13:45;;;;;;;12.52;10.57;;;7.50;99.90;;;;;;5004149;28;20108;-62
2022/03/02 04:16:12;;;;;;;13.85;12.32;;;7.50;99.90;;;;;;5003153;28;20097;-61
2022/03/02 04:18:40;;;;;;;13.13;11.73;;;7.50;99.90;;;;;;5004637;28;20057;-63
2022/03/02 04:21:06;;;;;;;14.30;12.35;;;7.50;99.90;;;;;;5004922;28;20125;-62
2022/03/02 04:23:33;;;;;;;14.43;12.27;;;7.50;99.90;;;;;;5004751;28;20140;-61
2022/03/02 04:26:00;;;;;;;16.23;12.65;;;7.50;99.90;;;;;;5003336;28;20089;-62
2022/03/02 04:28:29;;;;;;;15.77;12.02;;;7.50;99.90;;;;;;5003603;28;20103;-62
2022/03/02 04:30:56;;;;;;;14.15;12.65;;;7.50;99.90;;;;;;5003202;28;20073;-62
2022/03/02 04:33:23;;;;;;;15.57;12.75;;;7.50;99.90;;;;;;5003681;28;20512;-62
2022/03/02 04:35:49;;;;;;;16.05;13.63;;;7.40;99.90;;;;;;5004400;28;20078;-61
2022/03/02 04:38:16;;;;;;;15.93;13.35;;;7.40;99.90;;;;;;5004770;28;20133;-62
2022/03/02 04:40:43;;;;;;;14.75;12.95;;;7.50;99.90;;;;;;5004716;28;20641;-61
2022/03/02 04:43:09;;;;;;;15.45;12.40;;;7.50;99.90;;;;;;5008844;28;20096;-62
2022/03/02 04:45:36;;;;;;;15.68;12.85;;;7.50;99.90;;;;;;5005135;28;20084;-62
2022/03/02 04:48:03;;;;;;;15.05;12.80;;;7.50;99.90;;;;;;5008341;28;20107;-62
2022/03/02 04:50:30;;;;;;;15.02;12.20;;;7.50;99.90;;;;;;5006526;28;20077;-61
2022/03/02 04:52:56;;;;;;;15.38;12.82;;;7.50;99.90;;;;;;5008822;28;20137;-62
2022/03/02 04:55:23;;;;;;;14.85;12.65;;;7.50;99.90;;;;;;5007552;28;20390;-62
2022/03/02 04:57:52;;;;;;;14.30;12.23;;;7.50;99.90;;;;;;5007102;28;20085;-62
2022/03/02 05:00:25;;;;;;;14.48;12.82;;;7.50;99.90;;;;;;5005894;28;20186;-62
2022/03/02 05:02:58;;;;;;;15.25;12.50;;;7.40;99.90;;;;;;5008530;28;20107;-62
2022/03/02 05:05:25;;;;;;;12.85;11.40;;;7.40;99.90;;;;;;5008397;28;20489;-62
2022/03/02 05:07:52;;;;;;;15.00;12.70;;;7.50;99.90;;;;;;5008653;28;20137;-62
2022/03/02 05:10:21;;;;;;;13.00;11.48;;;7.40;99.90;;;;;;5007721;28;20145;-62
2022/03/02 05:12:48;;;;;;;14.18;12.05;;;7.40;99.90;;;;;;5008376;28;20489;-62
2022/03/02 05:15:15;;;;;;;14.40;12.90;;;7.50;99.90;;;;;;5005886;28;20141;-62
2022/03/02 05:17:42;;;;;;;14.93;12.75;;;7.40;99.90;;;;;;5008097;28;20096;-62
2022/03/02 05:20:10;;;;;;;13.55;11.75;;;7.40;99.90;;;;;;5007812;28;20061;-62
2022/03/02 05:22:37;;;;;;;15.60;12.77;;;7.40;99.90;;;;;;5008459;28;20141;-62
2022/03/02 05:25:05;;;;;;;14.48;11.98;;;7.40;99.90;;;;;;5007850;28;20149;-62
2022/03/02 05:27:32;;;;;;;14.02;11.88;;;7.40;99.90;;;;;;5008195;28;20081;-62
2022/03/02 05:29:58;;;;;;;13.40;11.73;;;7.40;99.90;;;;;;5006386;28;20053;-62
2022/03/02 05:32:25;;;;;;;14.55;12.43;;;7.40;99.90;;;;;;5008160;28;20401;-62
2022/03/02 05:34:52;;;;;;;12.55;11.25;;;7.40;99.90;;;;;;5007356;28;20077;-61
2022/03/02 05:37:19;;;;;;;13.75;11.35;;;7.40;99.90;;;;;;5008096;28;20145;-62
2022/03/02 05:39:46;;;;;;;11.90;10.05;;;7.40;99.90;;;;;;5007350;28;20417;-62
2022/03/02 05:42:12;;;;;;;11.20;9.73;;;7.40;99.90;;;;;;5008007;28;20084;-62
2022/03/02 05:44:39;;;;;;;12.18;10.82;;;7.40;99.90;;;;;;5005585;28;20133;-62
2022/03/02 05:47:06;;;;;;;12.45;11.10;;;7.40;99.90;;;;;;5008096;28;20116;-62
2022/03/02 05:49:33;;;;;;;12.77;11.43;;;7.40;99.90;;;;;;5002923;28;20577;-61
2022/03/02 05:52:01;;;;;;;13.40;11.98;;;7.40;99.90;;;;;;5006156;28;20501;-62
2022/03/02 05:54:27;;;;;;;15.52;12.30;;;7.40;99.90;;;;;;5004939;28;20132;-61
2022/03/02 05:56:54;;;;;;;13.63;11.88;;;7.30;99.90;;;;;;5020845;28;20519;-62
2022/03/02 05:59:21;;;;;;;13.52;11.95;;;7.40;99.90;;;;;;4993703;28;20054;-61
2022/03/02 06:01:49;;;;;;;15.35;11.82;;;7.30;99.90;;;;;;5005470;28;20137;-62
2022/03/02 06:04:16;;;;;;;14.38;12.20;;;7.30;99.90;;;;;;4994610;28;20417;-61
2022/03/02 06:06:42;;;;;;;12.85;11.40;;;7.30;99.90;;;;;;4999736;28;20092;-62
2022/03/02 06:09:10;;;;;;;14.77;11.95;;;7.30;99.90;;;;;;5001099;28;20141;-63
2022/03/02 06:11:37;;;;;;;13.35;11.32;;;7.30;99.90;;;;;;5002917;28;20096;-62
2022/03/02 06:14:07;;;;;;;15.18;12.73;;;7.20;99.90;;;;;;5011257;28;20162;-61
2022/03/02 06:16:38;;;;;;;15.10;12.60;;;7.20;99.90;;;;;;5010372;28;20049;-62
2022/03/02 06:19:06;;;;;;;14.52;12.48;;;7.20;99.90;;;;;;5013921;28;20664;-62
2022/03/02 06:21:34;;;;;;;15.32;13.43;;;7.20;99.90;;;;;;5009530;28;20080;-62
2022/03/02 06:24:00;;;;;;;15.43;12.52;;;7.20;99.90;;;;;;5001374;28;20077;-62
2022/03/02 06:26:27;;;;;;;13.93;11.90;;;7.20;99.90;;;;;;4997259;28;20117;-62
2022/03/02 06:28:54;;;;;;;13.40;12.05;;;7.20;99.90;;;;;;4989234;28;20046;-62
2022/03/02 06:31:21;;;;;;;12.82;11.50;;;7.10;99.90;;;;;;4988550;28;20038;-62
2022/03/02 06:33:48;;;;;;;13.82;11.18;;;7.20;99.90;;;;;;4993052;28;20085;-63
2022/03/02 06:36:15;;;;;;;13.80;11.82;;;7.10;99.90;;;;;;4987954;28;20137;-62
2022/03/02 06:38:41;;;;;;;13.32;11.93;;;7.20;99.90;;;;;;4999839;28;20236;-63
2022/03/02 06:41:25;;;;;;;13.43;10.48;;;7.20;99.90;;;;;;4998946;28;20050;-62
2022/03/02 06:44:09;;;;;;;13.95;11.05;;;7.10;99.90;;;;;;5005444;28;20156;-62
2022/03/02 06:46:59;;;;;;;11.63;10.13;;;7.10;99.90;;;;;;5017852;28;20408;-61
2022/03/02 06:49:44;;;;;;;12.50;10.38;;;7.20;99.90;;;;;;5020406;28;20053;-62
2022/03/02 06:52:12;;;;;;;13.13;11.68;;;7.20;99.90;;;;;;4995635;28;20394;-61
2022/03/02 06:54:42;;;;;;;12.80;11.45;;;7.20;99.90;;;;;;4992410;28;20134;-62
2022/03/02 06:57:10;;;;;;;13.23;11.73;;;7.20;99.90;;;;;;4996153;28;20124;-62
2022/03/02 06:59:47;;;;;;;13.55;12.15;;;7.20;99.90;;;;;;4996963;28;20054;-61
2022/03/02 07:02:15;;;;;;;15.38;12.45;;;7.20;99.90;;;;;;4993823;28;20108;-61
2022/03/02 07:04:43;;;;;;;14.00;11.93;;;7.20;99.90;;;;;;5012645;28;20050;-60
2022/03/02 07:07:11;;;;;;;13.60;11.48;;;7.20;99.90;;;;;;4989859;28;20114;-61
2022/03/02 07:09:38;;;;;;;14.10;12.60;;;7.30;99.90;;;;;;4989485;28;20464;-59
2022/03/02 07:12:06;;;;;;;13.98;12.48;;;7.30;99.90;;;;;;4985972;28;20145;-60
2022/03/02 07:14:33;;;;;;;14.80;12.23;;;7.30;99.90;;;;;;4989248;28;20447;-59
2022/03/02 07:17:01;;;;;;;15.73;13.77;;;7.30;99.90;;;;;;5001948;28;20132;-60
2022/03/02 07:19:28;;;;;;;15.20;13.55;;;7.30;99.90;;;;;;4995804;28;20549;-60
2022/03/02 07:21:55;;;;;;;14.43;12.50;;;7.30;99.90;;;;;;4992023;28;20085;-60
2022/03/02 07:24:22;;;;;;;14.88;12.93;;;7.30;99.90;;;;;;4996735;28;20168;-60
2022/03/02 07:26:51;;;;;;;16.30;14.20;;;7.40;99.90;;;;;;4999534;28;20132;-60
2022/03/02 07:29:19;;;;;;;12.48;11.27;;;7.40;99.90;;;;;;4996620;28;20127;-61
2022/03/02 07:31:46;;;;;;;12.70;11.40;;;7.40;99.90;;;;;;4998746;28;20472;-59
2022/03/02 07:34:19;;;;;;;15.57;12.35;;;7.40;99.90;;;;;;4996474;28;20058;-59
2022/03/02 07:36:46;;;;;;;13.02;11.68;;;7.30;99.90;;;;;;4998108;28;20120;-60
2022/03/02 07:39:14;;;;;;;13.65;11.40;;;7.30;99.90;;;;;;4997900;28;20623;-59
2022/03/02 07:41:40;;;;;;;13.55;10.88;;;7.30;99.90;;;;;;4999044;28;20137;-60
2022/03/02 07:44:07;;;;;;;10.95;9.85;;;7.40;99.90;;;;;;4995030;28;20137;-59
2022/03/02 07:46:34;;;;;;;12.77;11.23;;;7.30;99.90;;;;;;4998804;28;20189;-59
2022/03/02 07:49:02;;;;;;;10.52;9.43;;;7.40;99.90;;;;;;4998623;28;20188;-60
2022/03/02 07:51:28;;;;;;;12.63;10.27;;;7.30;99.90;;;;;;4998863;28;20145;-61
2022/03/02 07:53:59;;;;;;;12.05;10.48;;;7.40;99.90;;;;;;4996328;28;20129;-59
2022/03/02 07:56:28;;;;;;;12.02;9.48;;;7.40;99.90;;;;;;4996159;28;20131;-59
2022/03/02 07:59:01;;;;;;;9.65;8.65;;;7.40;99.90;;;;;;4995247;28;20168;-60
2022/03/02 08:01:28;;;;;;;9.57;8.50;;;7.40;99.90;;;;;;4998187;28;20326;-59
2022/03/02 08:03:55;;;;;;;10.93;9.73;;;7.50;99.90;;;;;;4998079;28;20066;-59
2022/03/02 08:06:22;;;;;;;11.13;9.00;;;7.50;99.90;;;;;;4996726;28;20081;-59
2022/03/02 08:08:50;;;;;;;10.63;9.57;;;7.50;99.90;;;;;;4964071;28;20057;-59
2022/03/02 08:11:17;;;;;;;12.48;9.18;;;7.50;99.90;;;;;;4964455;28;20122;-60
2022/03/02 08:13:44;;;;;;;10.48;9.38;;;7.40;99.90;;;;;;4996018;28;20331;-59
2022/03/02 08:16:10;;;;;;;10.60;9.52;;;7.40;99.90;;;;;;4996195;28;20136;-59
2022/03/02 08:18:37;;;;;;;10.73;9.57;;;7.50;99.90;;;;;;4996129;28;20605;-59
2022/03/02 08:21:04;;;;;;;10.45;9.35;;;7.40;99.90;;;;;;4994057;28;20061;-58
2022/03/02 08:23:36;;;;;;;9.90;8.88;;;7.40;99.90;;;;;;4986001;28;20470;-60
2022/03/02 08:26:03;;;;;;;10.67;9.63;;;7.40;99.90;;;;;;4989264;28;20053;-60
2022/03/02 08:28:33;;;;;;;10.20;9.10;;;7.40;99.90;;;;;;4997911;28;20283;-58
2022/03/02 08:30:59;;;;;;;9.82;8.38;;;7.40;99.90;;;;;;4995078;28;20081;-60
2022/03/02 08:33:29;;;;;;;9.43;8.48;;;7.50;99.90;;;;;;4994745;28;20086;-59
2022/03/02 08:35:57;;;;;;;9.25;8.30;;;7.50;99.90;;;;;;4976592;28;20351;-59
2022/03/02 08:38:24;;;;;;;10.55;9.45;;;7.50;99.90;;;;;;4990151;28;20171;-59
2022/03/02 08:40:51;;;;;;;10.82;8.88;;;7.50;99.90;;;;;;4993983;28;20516;-60
2022/03/02 08:43:18;;;;;;;9.13;8.23;;;7.50;99.90;;;;;;5007200;28;20161;-59
2022/03/02 08:45:49;;;;;;;11.73;9.18;;;7.50;99.90;;;;;;5002231;28;20782;-59
2022/03/02 08:48:16;;;;;;;11.23;9.13;;;7.60;99.90;;;;;;5010416;28;20065;-59
2022/03/02 08:50:43;;;;;;;9.95;8.50;;;7.60;99.90;;;;;;4993063;28;20144;-60
2022/03/02 08:53:15;;;;;;;10.13;8.73;;;7.60;99.90;;;;;;5000448;28;20057;-59
2022/03/02 08:55:42;;;;;;;11.52;10.32;;;7.60;99.90;;;;;;4989087;28;20277;-60
2022/03/02 08:58:09;;;;;;;11.48;10.00;;;7.50;99.90;;;;;;4992371;28;20307;-60
2022/03/02 09:00:37;;;;;;;12.45;10.05;;;7.40;99.90;;;;;;5005703;28;20069;-60
2022/03/02 09:03:04;;;;;;;10.85;9.75;;;7.40;99.90;;;;;;5003872;28;20054;-60
2022/03/02 09:05:31;;;;;;;10.73;8.70;;;7.50;99.90;;;;;;5017095;28;20498;-60
2022/03/02 09:07:58;;;;;;;10.02;8.80;;;7.50;99.90;;;;;;5001366;28;20069;-60
2022/03/02 09:10:25;;;;;;;10.60;9.48;;;7.50;99.90;;;;;;4996909;28;20651;-60
2022/03/02 09:12:51;;;;;;;10.90;9.35;;;7.50;99.90;;;;;;4996183;28;20476;-60
2022/03/02 09:15:18;;;;;;;10.93;9.38;;;7.40;99.90;;;;;;5015385;28;20054;-59
2022/03/02 09:17:45;;;;;;;9.75;8.75;;;7.50;99.90;;;;;;5007957;28;20137;-59
2022/03/02 09:20:12;;;;;;;9.93;8.55;;;7.50;99.90;;;;;;4996708;28;20232;-60
2022/03/02 09:22:39;;;;;;;9.68;8.45;;;7.50;99.90;;;;;;4998232;28;20128;-60
2022/03/02 09:25:07;;;;;;;9.45;8.35;;;7.60;99.90;;;;;;4990900;28;20050;-60
2022/03/02 09:27:33;;;;;;;9.63;8.57;;;7.60;99.90;;;;;;4990044;28;20125;-59
2022/03/02 09:30:03;;;;;;;8.73;7.60;;;7.60;99.90;;;;;;5013428;28;20085;-59
2022/03/02 09:32:30;;;;;;;9.05;8.13;;;7.70;99.90;;;;;;5017438;28;20151;-59
2022/03/02 09:34:59;;;;;;;8.75;7.68;;;7.70;99.90;;;;;;5020561;28;20053;-60
2022/03/02 09:37:27;;;;;;;8.88;7.70;;;7.70;99.90;;;;;;5009394;28;20046;-60
2022/03/02 09:39:54;;;;;;;8.77;7.88;;;7.80;99.90;;;;;;4999620;28;20077;-59
2022/03/02 09:42:25;;;;;;;9.23;8.30;;;7.70;99.90;;;;;;4996567;28;20151;-59
2022/03/02 09:45:06;;;;;;;9.95;7.97;;;7.80;99.90;;;;;;5014484;28;20131;-60
2022/03/02 09:47:44;;;;;;;9.48;8.43;;;7.80;99.90;;;;;;5015470;28;20144;-60
2022/03/02 09:50:14;;;;;;;10.88;8.00;;;7.80;99.90;;;;;;5002722;28;20081;-59
2022/03/02 09:52:42;;;;;;;9.32;8.32;;;7.80;99.90;;;;;;5016113;28;20049;-59
2022/03/02 09:55:12;;;;;;;8.48;7.53;;;7.80;99.90;;;;;;5004317;28;20097;-60
2022/03/02 09:57:46;;;;;;;8.95;7.95;;;7.80;99.90;;;;;;5001567;28;20473;-59
2022/03/02 10:00:14;;;;;;;9.32;8.30;;;7.70;99.90;;;;;;4996773;28;20196;-59
2022/03/02 10:02:49;;;;;;;9.43;8.13;;;7.80;99.90;;;;;;4996794;28;20104;-60
2022/03/02 10:05:20;;;;;;;8.05;7.22;;;7.80;99.90;;;;;;4980262;28;20141;-60
2022/03/02 10:08:02;;;;;;;8.68;7.75;;;7.90;99.90;;;;;;4996015;28;20132;-60
2022/03/02 10:10:33;;;;;;;7.63;6.65;;;8.00;99.90;;;;;;4999780;28;20100;-60
2022/03/02 10:13:01;;;;;;;9.25;7.90;;;8.00;99.90;;;;;;5000414;28;20088;-60
2022/03/02 10:15:29;;;;;;;9.90;8.48;;;8.00;99.90;;;;;;4997862;28;20199;-60
2022/03/02 10:18:03;;;;;;;8.18;7.20;;;8.10;99.90;;;;;;5000485;28;20147;-60
2022/03/02 10:20:31;;;;;;;8.82;6.93;;;8.00;99.90;;;;;;4995370;28;20137;-60
2022/03/02 10:23:24;;;;;;;8.15;7.30;;;8.10;99.90;;;;;;5008582;28;20137;-60
2022/03/02 10:26:08;;;;;;;7.90;7.07;;;8.20;99.90;;;;;;5000658;28;20115;-60
2022/03/02 10:28:59;;;;;;;8.60;7.50;;;8.20;99.90;;;;;;5008844;28;20098;-59
2022/03/02 10:31:37;;;;;;;8.02;7.22;;;8.20;99.90;;;;;;4990908;28;20272;-60
2022/03/02 10:34:25;;;;;;;9.38;7.80;;;8.20;99.90;;;;;;4987098;28;20497;-60
2022/03/02 10:37:16;;;;;;;9.23;8.02;;;8.20;99.90;;;;;;4993072;28;20579;-61
2022/03/02 10:39:54;;;;;;;8.93;8.00;;;8.20;99.90;;;;;;4998131;28;20208;-60
2022/03/02 10:42:25;;;;;;;10.63;8.18;;;8.30;99.90;;;;;;5003560;28;20131;-60
2022/03/02 10:44:58;;;;;;;8.35;7.45;;;8.20;99.90;;;;;;5000017;28;20049;-60
2022/03/02 10:47:24;;;;;;;9.02;8.00;;;8.20;99.90;;;;;;5019275;28;20575;-60
2022/03/02 10:49:52;;;;;;;8.20;7.40;;;8.20;99.90;;;;;;5000143;28;21136;-60
2022/03/02 10:52:21;;;;;;;8.77;7.88;;;8.20;99.90;;;;;;4982252;28;20056;-60
2022/03/02 10:54:48;;;;;;;10.27;7.80;;;8.30;99.90;;;;;;4998813;28;20145;-60
2022/03/02 10:57:16;;;;;;;7.72;6.93;;;8.30;99.90;;;;;;4986466;28;20085;-64
2022/03/02 10:59:43;;;;;;;8.32;7.53;;;8.30;99.90;;;;;;4993431;28;20065;-60
2022/03/02 11:02:11;;;;;;;10.25;8.38;;;8.30;99.90;;;;;;5002122;28;20431;-60
2022/03/02 11:04:38;;;;;;;8.82;7.93;;;8.30;99.90;;;;;;4992125;28;20137;-60
2022/03/02 11:07:05;;;;;;;7.38;6.63;;;8.40;99.90;;;;;;5007336;28;20500;-60
2022/03/02 11:09:50;;;;;;;8.95;7.22;;;8.40;99.90;;;;;;5000215;28;20108;-60
2022/03/02 11:12:20;;;;;;;9.73;7.70;;;8.40;99.90;;;;;;5017144;28;20065;-60
2022/03/02 11:14:58;;;;;;;8.40;7.50;;;8.40;99.90;;;;;;5005684;28;20115;-60
2022/03/02 11:17:26;;;;;;;7.32;6.63;;;8.40;99.90;;;;;;5000434;28;20226;-60
2022/03/02 11:19:54;;;;;;;8.43;7.32;;;8.40;99.90;;;;;;4999738;28;20053;-60
2022/03/02 11:22:20;;;;;;;7.68;6.88;;;8.50;99.90;;;;;;4997730;28;20104;-60
2022/03/02 11:24:47;;;;;;;7.10;6.30;;;8.50;99.90;;;;;;4998350;28;20392;-60
2022/03/02 11:27:28;;;;;;;7.30;6.53;;;8.60;99.90;;;;;;4998057;28;20163;-60
2022/03/02 11:30:02;;;;;;;7.28;6.57;;;8.70;99.90;;;;;;4997043;28;20115;-60
2022/03/02 11:32:34;;;;;;;7.25;6.45;;;8.70;99.90;;;;;;4979727;28;20112;-60
2022/03/02 11:35:03;;;;;;;7.57;6.30;;;8.70;99.90;;;;;;4995101;28;20537;-60
2022/03/02 11:37:33;;;;;;;7.57;6.50;;;8.70;99.90;;;;;;4996201;28;20121;-60
2022/03/02 11:40:03;;;;;;;7.60;6.72;;;8.70;99.90;;;;;;4993041;28;20109;-60
2022/03/02 11:42:31;;;;;;;6.00;5.40;;;8.70;99.90;;;;;;4989399;28;20137;-60
2022/03/02 11:44:59;;;;;;;6.32;5.70;;;8.70;99.90;;;;;;4992805;28;20077;-60
2022/03/02 11:47:36;;;;;;;9.13;7.00;;;8.70;99.90;;;;;;4997281;28;20133;-60
2022/03/02 11:50:05;;;;;;;7.13;6.43;;;8.60;99.90;;;;;;4992121;28;20482;-60
2022/03/02 11:52:34;;;;;;;8.40;7.50;;;8.60;99.90;;;;;;4985605;28;20075;-60
2022/03/02 11:55:07;;;;;;;9.77;8.80;;;8.60;99.90;;;;;;4987668;28;20498;-60
2022/03/02 11:57:41;;;;;;;7.90;6.57;;;8.70;99.90;;;;;;5015954;28;20133;-60
2022/03/02 12:00:16;;;;;;;6.57;5.88;;;8.70;99.90;;;;;;4985824;28;20132;-60
2022/03/02 12:02:54;;;;;;;7.00;5.68;;;8.80;99.90;;;;;;5001739;28;20089;-60
2022/03/02 12:05:23;;;;;;;6.45;5.47;;;8.80;99.90;;;;;;5011593;28;20088;-60
2022/03/02 12:07:51;;;;;;;5.97;5.28;;;8.90;99.90;;;;;;4998005;28;20125;-60
2022/03/02 12:10:22;;;;;;;6.82;5.40;;;8.90;99.90;;;;;;4996624;28;20124;-60
2022/03/02 12:12:49;;;;;;;5.63;4.80;;;9.00;99.90;;;;;;4985116;28;20053;-60
2022/03/02 12:15:16;;;;;;;6.20;5.38;;;9.10;99.90;;;;;;4995521;28;20146;-60
2022/03/02 12:17:43;;;;;;;5.78;5.18;;;9.10;99.90;;;;;;4985976;28;20168;-60
2022/03/02 12:20:13;;;;;;;5.75;4.78;;;9.10;99.90;;;;;;4985047;28;20355;-60
2022/03/02 12:22:45;;;;;;;6.53;5.78;;;9.20;99.90;;;;;;4985301;28;20046;-60
2022/03/02 12:25:18;;;;;;;7.22;6.25;;;9.20;99.90;;;;;;4997811;28;20394;-60
2022/03/02 12:27:57;;;;;;;7.45;6.47;;;9.30;99.90;;;;;;4984715;28;20054;-61
2022/03/02 12:30:24;;;;;;;7.55;6.32;;;9.50;99.90;;;;;;4988518;28;20145;-60
2022/03/02 12:32:52;;;;;;;7.90;6.72;;;9.50;99.90;;;;;;4986337;28;20089;-60
2022/03/02 12:35:23;;;;;;;6.55;5.15;;;9.50;99.90;;;;;;4987288;28;21217;-60
2022/03/02 12:37:54;;;;;;;5.60;5.00;;;9.70;99.90;;;;;;4994618;28;20154;-60
2022/03/02 12:40:21;;;;;;;6.25;5.40;;;9.80;99.90;;;;;;4991976;28;20139;-60
2022/03/02 12:42:48;;;;;;;6.40;5.70;;;9.80;99.90;;;;;;4985854;28;20082;-60
2022/03/02 12:45:15;;;;;;;4.75;4.22;;;9.80;99.90;;;;;;4975169;28;20513;-59
2022/03/02 12:47:42;;;;;;;5.35;4.82;;;9.90;99.90;;;;;;4996050;28;20081;-61
2022/03/02 12:50:11;;;;;;;5.50;4.95;;;10.00;99.90;;;;;;4995901;28;20405;-60
2022/03/02 12:52:38;;;;;;;4.82;4.18;;;10.20;99.90;;;;;;4999938;28;20046;-60